sensor_id;sensor_type;location;lat;lon;timestamp;pressure;altitude;pressure_sealevel;temperature;humidity
37368;BME280;23240;43.210;27.910;2022-09-20T00:00:00;100875.06;;;13.76;92.21
37368;BME280;23240;43.210;27.910;2022-09-20T00:02:26;100879.63;;;13.75;91.93
37368;BME280;23240;43.210;27.910;2022-09-20T00:04:52;100876.06;;;13.75;92.32
37368;BME280;23240;43.210;27.910;2022-09-20T00:07:17;100870.53;;;13.76;92.59
37368;BME280;23240;43.210;27.910;2022-09-20T00:09:43;100867.00;;;13.76;92.69
37368;BME280;23240;43.210;27.910;2022-09-20T00:12:08;100858.66;;;13.79;92.70
37368;BME280;23240;43.210;27.910;2022-09-20T00:14:34;100862.59;;;13.84;92.99
37368;BME280;23240;43.210;27.910;2022-09-20T00:16:59;100847.56;;;13.82;92.65
37368;BME280;23240;43.210;27.910;2022-09-20T00:19:25;100849.28;;;13.83;92.85
37368;BME280;23240;43.210;27.910;2022-09-20T00:21:50;100842.06;;;13.83;93.09
37368;BME280;23240;43.210;27.910;2022-09-20T00:24:16;100842.34;;;13.80;93.70
37368;BME280;23240;43.210;27.910;2022-09-20T00:26:41;100834.00;;;13.83;93.23
37368;BME280;23240;43.210;27.910;2022-09-20T00:29:07;100837.53;;;13.84;93.37
37368;BME280;23240;43.210;27.910;2022-09-20T00:31:32;100818.94;;;13.91;92.81
37368;BME280;23240;43.210;27.910;2022-09-20T00:33:59;100828.28;;;13.86;92.56
37368;BME280;23240;43.210;27.910;2022-09-20T00:36:44;100825.47;;;13.88;92.46
37368;BME280;23240;43.210;27.910;2022-09-20T00:39:12;100824.59;;;13.87;92.64
37368;BME280;23240;43.210;27.910;2022-09-20T00:41:38;100822.63;;;13.89;92.51
37368;BME280;23240;43.210;27.910;2022-09-20T00:49:47;100808.19;;;13.81;93.47
37368;BME280;23240;43.210;27.910;2022-09-20T00:52:14;100815.69;;;13.77;93.46
37368;BME280;23240;43.210;27.910;2022-09-20T00:54:41;100808.47;;;13.78;93.77
37368;BME280;23240;43.210;27.910;2022-09-20T00:57:06;100808.19;;;13.71;94.10
37368;BME280;23240;43.210;27.910;2022-09-20T00:59:35;100802.81;;;13.71;94.17
37368;BME280;23240;43.210;27.910;2022-09-20T01:02:08;100804.81;;;13.69;94.14
37368;BME280;23240;43.210;27.910;2022-09-20T01:04:38;100808.19;;;13.71;93.73
37368;BME280;23240;43.210;27.910;2022-09-20T01:07:06;100795.75;;;13.70;94.03
37368;BME280;23240;43.210;27.910;2022-09-20T01:09:33;100806.66;;;13.69;94.23
37368;BME280;23240;43.210;27.910;2022-09-20T01:12:02;100798.03;;;13.65;94.27
37368;BME280;23240;43.210;27.910;2022-09-20T01:14:30;100795.59;;;13.62;95.02
37368;BME280;23240;43.210;27.910;2022-09-20T01:17:00;100808.06;;;13.63;95.00
37368;BME280;23240;43.210;27.910;2022-09-20T01:19:42;100805.78;;;13.58;95.64
37368;BME280;23240;43.210;27.910;2022-09-20T01:22:25;100805.69;;;13.60;95.57
37368;BME280;23240;43.210;27.910;2022-09-20T01:25:08;100813.59;;;13.61;95.74
37368;BME280;23240;43.210;27.910;2022-09-20T01:27:44;100804.25;;;13.56;96.02
37368;BME280;23240;43.210;27.910;2022-09-20T01:30:23;100821.41;;;13.55;96.41
37368;BME280;23240;43.210;27.910;2022-09-20T01:33:09;100818.13;;;13.51;96.88
37368;BME280;23240;43.210;27.910;2022-09-20T01:35:38;100824.22;;;13.53;96.79
37368;BME280;23240;43.210;27.910;2022-09-20T01:40:58;100820.97;;;13.50;97.24
37368;BME280;23240;43.210;27.910;2022-09-20T01:46:33;100820.41;;;13.56;96.14
37368;BME280;23240;43.210;27.910;2022-09-20T02:14:35;100824.34;;;13.71;95.30
37368;BME280;23240;43.210;27.910;2022-09-20T02:17:17;100817.97;;;13.72;95.08
37368;BME280;23240;43.210;27.910;2022-09-20T02:42:40;100848.00;;;13.68;95.73
37368;BME280;23240;43.210;27.910;2022-09-20T02:45:34;100842.50;;;13.59;96.42
37368;BME280;23240;43.210;27.910;2022-09-20T02:48:03;100852.44;;;13.59;95.22
37368;BME280;23240;43.210;27.910;2022-09-20T02:50:49;100843.63;;;13.57;94.88
37368;BME280;23240;43.210;27.910;2022-09-20T02:53:31;100845.31;;;13.58;94.28
37368;BME280;23240;43.210;27.910;2022-09-20T02:56:21;100851.56;;;13.58;93.71
37368;BME280;23240;43.210;27.910;2022-09-20T02:59:24;100852.97;;;13.53;94.52
37368;BME280;23240;43.210;27.910;2022-09-20T03:07:42;100853.97;;;13.52;94.91
37368;BME280;23240;43.210;27.910;2022-09-20T03:13:05;100861.88;;;13.44;96.54
37368;BME280;23240;43.210;27.910;2022-09-20T03:15:56;100858.78;;;13.38;97.82
37368;BME280;23240;43.210;27.910;2022-09-20T03:18:48;100869.84;;;13.35;98.30
37368;BME280;23240;43.210;27.910;2022-09-20T03:24:17;100867.97;;;13.26;98.71
37368;BME280;23240;43.210;27.910;2022-09-20T03:34:42;100873.63;;;13.23;99.73
37368;BME280;23240;43.210;27.910;2022-09-20T03:40:05;100880.78;;;13.13;100.00
37368;BME280;23240;43.210;27.910;2022-09-20T03:42:45;100878.97;;;13.13;100.00
37368;BME280;23240;43.210;27.910;2022-09-20T04:04:23;100898.13;;;12.90;100.00
37368;BME280;23240;43.210;27.910;2022-09-20T04:09:49;100893.09;;;12.96;100.00
37368;BME280;23240;43.210;27.910;2022-09-20T04:17:40;100901.81;;;12.89;100.00
37368;BME280;23240;43.210;27.910;2022-09-20T04:23:07;100905.50;;;12.88;100.00
37368;BME280;23240;43.210;27.910;2022-09-20T04:25:41;100904.50;;;12.89;100.00
37368;BME280;23240;43.210;27.910;2022-09-20T04:28:20;100907.44;;;12.85;100.00
37368;BME280;23240;43.210;27.910;2022-09-20T04:30:47;100906.75;;;12.83;100.00
37368;BME280;23240;43.210;27.910;2022-09-20T04:36:13;100911.44;;;12.81;100.00
37368;BME280;23240;43.210;27.910;2022-09-20T04:39:02;100912.78;;;12.76;100.00
37368;BME280;23240;43.210;27.910;2022-09-20T05:12:04;100914.28;;;12.59;100.00
37368;BME280;23240;43.210;27.910;2022-09-20T05:15:09;100909.56;;;12.51;100.00
37368;BME280;23240;43.210;27.910;2022-09-20T05:17:57;100904.53;;;12.58;100.00
37368;BME280;23240;43.210;27.910;2022-09-20T05:20:46;100899.66;;;12.52;100.00
37368;BME280;23240;43.210;27.910;2022-09-20T05:23:34;100897.72;;;12.54;100.00
37368;BME280;23240;43.210;27.910;2022-09-20T05:26:25;100899.84;;;12.60;100.00
37368;BME280;23240;43.210;27.910;2022-09-20T05:32:05;100905.69;;;12.65;100.00
37368;BME280;23240;43.210;27.910;2022-09-20T05:41:05;100902.53;;;12.91;100.00
37368;BME280;23240;43.210;27.910;2022-09-20T05:43:36;100900.44;;;13.04;98.36
37368;BME280;23240;43.210;27.910;2022-09-20T05:56:49;100929.06;;;14.13;87.58
37368;BME280;23240;43.210;27.910;2022-09-20T06:16:00;100932.13;;;15.85;70.10
37368;BME280;23240;43.210;27.910;2022-09-20T06:21:14;100941.38;;;15.64;69.57
37368;BME280;23240;43.210;27.910;2022-09-20T06:23:42;100947.41;;;15.94;68.68
37368;BME280;23240;43.210;27.910;2022-09-20T06:26:14;100949.00;;;16.23;65.10
37368;BME280;23240;43.210;27.910;2022-09-20T06:28:48;100940.78;;;16.06;65.26
37368;BME280;23240;43.210;27.910;2022-09-20T06:31:16;100954.75;;;16.02;65.29
37368;BME280;23240;43.210;27.910;2022-09-20T06:33:45;100943.47;;;16.06;65.68
37368;BME280;23240;43.210;27.910;2022-09-20T06:36:26;100959.31;;;15.83;66.81
37368;BME280;23240;43.210;27.910;2022-09-20T06:42:04;100963.75;;;15.75;66.84
37368;BME280;23240;43.210;27.910;2022-09-20T06:44:30;100958.44;;;15.65;66.68
37368;BME280;23240;43.210;27.910;2022-09-20T06:46:56;100963.31;;;15.52;67.92
37368;BME280;23240;43.210;27.910;2022-09-20T06:49:22;100953.88;;;15.65;68.00
37368;BME280;23240;43.210;27.910;2022-09-20T06:51:48;100960.78;;;15.78;68.14
37368;BME280;23240;43.210;27.910;2022-09-20T06:54:19;100958.44;;;15.65;68.10
37368;BME280;23240;43.210;27.910;2022-09-20T06:56:46;100959.84;;;15.69;66.33
37368;BME280;23240;43.210;27.910;2022-09-20T06:59:12;100973.25;;;15.33;67.05
37368;BME280;23240;43.210;27.910;2022-09-20T07:01:40;100971.53;;;15.32;68.25
37368;BME280;23240;43.210;27.910;2022-09-20T07:04:06;100968.81;;;15.60;66.72
37368;BME280;23240;43.210;27.910;2022-09-20T07:06:33;100960.84;;;15.68;66.27
37368;BME280;23240;43.210;27.910;2022-09-20T07:08:59;100962.06;;;16.09;65.03
37368;BME280;23240;43.210;27.910;2022-09-20T07:11:24;100958.94;;;16.66;60.66
37368;BME280;23240;43.210;27.910;2022-09-20T07:13:55;100957.34;;;17.07;57.75
37368;BME280;23240;43.210;27.910;2022-09-20T07:16:22;100965.75;;;16.70;57.78
37368;BME280;23240;43.210;27.910;2022-09-20T07:18:48;100965.75;;;16.96;56.90
37368;BME280;23240;43.210;27.910;2022-09-20T07:21:17;100956.22;;;16.84;56.75
37368;BME280;23240;43.210;27.910;2022-09-20T07:23:43;100954.03;;;17.21;55.14
37368;BME280;23240;43.210;27.910;2022-09-20T07:26:18;100950.88;;;17.42;53.85
37368;BME280;23240;43.210;27.910;2022-09-20T07:28:44;100946.94;;;17.87;52.41
37368;BME280;23240;43.210;27.910;2022-09-20T07:31:09;100948.97;;;17.93;51.10
37368;BME280;23240;43.210;27.910;2022-09-20T07:33:35;100957.59;;;17.89;50.24
37368;BME280;23240;43.210;27.910;2022-09-20T07:36:01;100940.78;;;17.69;49.91
37368;BME280;23240;43.210;27.910;2022-09-20T07:38:26;100954.53;;;17.84;49.21
37368;BME280;23240;43.210;27.910;2022-09-20T07:40:56;100954.41;;;18.18;48.40
37368;BME280;23240;43.210;27.910;2022-09-20T07:43:23;100959.16;;;18.16;47.28
37368;BME280;23240;43.210;27.910;2022-09-20T07:45:50;100950.84;;;17.85;47.17
37368;BME280;23240;43.210;27.910;2022-09-20T07:48:19;100952.88;;;17.40;47.85
37368;BME280;23240;43.210;27.910;2022-09-20T07:50:53;100952.97;;;17.57;47.98
37368;BME280;23240;43.210;27.910;2022-09-20T07:53:19;100964.22;;;17.86;47.95
37368;BME280;23240;43.210;27.910;2022-09-20T07:58:30;100961.84;;;17.83;48.25
37368;BME280;23240;43.210;27.910;2022-09-20T08:00:58;100953.38;;;18.03;48.39
37368;BME280;23240;43.210;27.910;2022-09-20T08:03:24;100946.59;;;18.31;48.62
37368;BME280;23240;43.210;27.910;2022-09-20T08:05:51;100962.19;;;18.45;47.84
37368;BME280;23240;43.210;27.910;2022-09-20T08:08:17;100953.22;;;18.12;48.58
37368;BME280;23240;43.210;27.910;2022-09-20T08:10:46;100960.19;;;18.23;48.60
37368;BME280;23240;43.210;27.910;2022-09-20T08:13:13;100957.81;;;18.04;48.65
37368;BME280;23240;43.210;27.910;2022-09-20T08:15:39;100961.19;;;18.30;48.06
37368;BME280;23240;43.210;27.910;2022-09-20T08:18:06;100964.91;;;18.54;47.85
37368;BME280;23240;43.210;27.910;2022-09-20T08:20:35;100959.97;;;18.73;47.11
37368;BME280;23240;43.210;27.910;2022-09-20T08:23:01;100954.88;;;18.70;47.42
37368;BME280;23240;43.210;27.910;2022-09-20T08:25:27;100950.78;;;18.91;46.51
37368;BME280;23240;43.210;27.910;2022-09-20T08:27:53;100955.53;;;18.89;43.82
37368;BME280;23240;43.210;27.910;2022-09-20T08:30:19;100949.56;;;19.02;43.05
37368;BME280;23240;43.210;27.910;2022-09-20T08:32:44;100940.31;;;19.19;43.08
37368;BME280;23240;43.210;27.910;2022-09-20T08:35:10;100955.72;;;19.26;42.49
37368;BME280;23240;43.210;27.910;2022-09-20T08:37:36;100944.66;;;18.89;41.50
37368;BME280;23240;43.210;27.910;2022-09-20T08:40:03;100947.19;;;18.90;42.57
37368;BME280;23240;43.210;27.910;2022-09-20T08:42:33;100945.41;;;18.50;42.85
37368;BME280;23240;43.210;27.910;2022-09-20T08:45:16;100937.28;;;18.26;43.35
37368;BME280;23240;43.210;27.910;2022-09-20T08:47:51;100948.50;;;18.14;44.12
37368;BME280;23240;43.210;27.910;2022-09-20T08:50:19;100933.91;;;18.15;44.38
37368;BME280;23240;43.210;27.910;2022-09-20T08:52:47;100938.13;;;18.26;43.96
37368;BME280;23240;43.210;27.910;2022-09-20T08:55:15;100933.03;;;18.31;43.31
37368;BME280;23240;43.210;27.910;2022-09-20T08:57:41;100919.16;;;18.34;43.31
37368;BME280;23240;43.210;27.910;2022-09-20T09:00:16;100920.69;;;18.29;42.97
37368;BME280;23240;43.210;27.910;2022-09-20T09:02:43;100930.16;;;18.49;42.94
37368;BME280;23240;43.210;27.910;2022-09-20T09:05:48;100928.44;;;18.56;43.06
37368;BME280;23240;43.210;27.910;2022-09-20T09:08:21;100922.00;;;18.49;43.34
37368;BME280;23240;43.210;27.910;2022-09-20T09:16:04;100913.69;;;18.59;43.28
37368;BME280;23240;43.210;27.910;2022-09-20T09:18:34;100911.97;;;18.74;42.93
37368;BME280;23240;43.210;27.910;2022-09-20T09:21:01;100906.53;;;18.82;42.72
37368;BME280;23240;43.210;27.910;2022-09-20T09:23:37;100902.09;;;18.89;41.61
37368;BME280;23240;43.210;27.910;2022-09-20T09:26:04;100904.28;;;18.94;41.01
37368;BME280;23240;43.210;27.910;2022-09-20T09:28:30;100912.66;;;18.76;40.54
37368;BME280;23240;43.210;27.910;2022-09-20T09:31:12;100907.25;;;18.76;40.79
37368;BME280;23240;43.210;27.910;2022-09-20T09:33:42;100909.25;;;18.66;40.15
37368;BME280;23240;43.210;27.910;2022-09-20T09:36:20;100915.69;;;18.81;38.73
37368;BME280;23240;43.210;27.910;2022-09-20T09:38:48;100924.88;;;18.72;37.41
37368;BME280;23240;43.210;27.910;2022-09-20T09:43:42;100919.09;;;18.67;36.30
37368;BME280;23240;43.210;27.910;2022-09-20T09:46:22;100911.97;;;18.74;35.46
37368;BME280;23240;43.210;27.910;2022-09-20T09:51:34;100914.75;;;19.05;36.14
37368;BME280;23240;43.210;27.910;2022-09-20T09:54:02;100916.38;;;19.14;36.60
37368;BME280;23240;43.210;27.910;2022-09-20T09:56:40;100918.84;;;19.01;35.38
37368;BME280;23240;43.210;27.910;2022-09-20T09:59:32;100924.75;;;19.05;36.04
37368;BME280;23240;43.210;27.910;2022-09-20T10:10:48;100914.91;;;19.04;35.98
37368;BME280;23240;43.210;27.910;2022-09-20T10:16:00;100910.09;;;19.22;36.48
37368;BME280;23240;43.210;27.910;2022-09-20T10:21:43;100899.97;;;19.08;35.33
37368;BME280;23240;43.210;27.910;2022-09-20T10:24:24;100899.00;;;19.00;35.65
37368;BME280;23240;43.210;27.910;2022-09-20T10:27:11;100895.03;;;19.11;35.29
37368;BME280;23240;43.210;27.910;2022-09-20T10:33:05;100898.69;;;19.26;34.86
37368;BME280;23240;43.210;27.910;2022-09-20T10:39:15;100902.56;;;19.01;35.50
37368;BME280;23240;43.210;27.910;2022-09-20T10:44:24;100886.69;;;19.21;35.48
37368;BME280;23240;43.210;27.910;2022-09-20T10:47:14;100895.16;;;18.87;34.88
37368;BME280;23240;43.210;27.910;2022-09-20T10:53:13;100902.25;;;18.88;36.03
37368;BME280;23240;43.210;27.910;2022-09-20T10:58:34;100887.91;;;18.71;36.27
37368;BME280;23240;43.210;27.910;2022-09-20T11:01:31;100886.31;;;18.85;36.49
37368;BME280;23240;43.210;27.910;2022-09-20T11:09:37;100883.88;;;19.06;36.09
37368;BME280;23240;43.210;27.910;2022-09-20T11:14:57;100885.38;;;19.09;36.35
37368;BME280;23240;43.210;27.910;2022-09-20T11:17:41;100884.69;;;19.15;35.41
37368;BME280;23240;43.210;27.910;2022-09-20T11:20:23;100884.03;;;19.05;35.05
37368;BME280;23240;43.210;27.910;2022-09-20T11:22:55;100880.66;;;19.03;35.48
37368;BME280;23240;43.210;27.910;2022-09-20T11:25:37;100880.22;;;19.22;36.63
37368;BME280;23240;43.210;27.910;2022-09-20T11:28:14;100875.63;;;19.22;36.32
37368;BME280;23240;43.210;27.910;2022-09-20T11:31:08;100869.44;;;19.37;36.10
37368;BME280;23240;43.210;27.910;2022-09-20T11:41:55;100868.69;;;19.20;37.68
37368;BME280;23240;43.210;27.910;2022-09-20T11:44:24;100869.06;;;19.09;36.75
37368;BME280;23240;43.210;27.910;2022-09-20T11:47:04;100870.91;;;19.16;36.41
37368;BME280;23240;43.210;27.910;2022-09-20T11:50:00;100868.69;;;19.20;36.55
37368;BME280;23240;43.210;27.910;2022-09-20T11:52:45;100869.56;;;19.43;36.63
37368;BME280;23240;43.210;27.910;2022-09-20T11:55:49;100876.94;;;19.58;36.40
37368;BME280;23240;43.210;27.910;2022-09-20T11:58:21;100863.63;;;19.71;36.20
37368;BME280;23240;43.210;27.910;2022-09-20T12:00:49;100870.00;;;19.55;36.63
37368;BME280;23240;43.210;27.910;2022-09-20T12:03:51;100874.22;;;19.35;35.89
37368;BME280;23240;43.210;27.910;2022-09-20T12:06:31;100857.47;;;19.23;36.28
37368;BME280;23240;43.210;27.910;2022-09-20T12:09:00;100872.88;;;19.31;36.43
37368;BME280;23240;43.210;27.910;2022-09-20T12:11:30;100862.84;;;19.31;36.33
37368;BME280;23240;43.210;27.910;2022-09-20T12:14:02;100865.88;;;19.36;36.25
37368;BME280;23240;43.210;27.910;2022-09-20T12:16:43;100865.66;;;19.46;36.13
37368;BME280;23240;43.210;27.910;2022-09-20T12:19:12;100871.91;;;19.46;35.66
37368;BME280;23240;43.210;27.910;2022-09-20T12:24:36;100864.84;;;19.37;36.81
37368;BME280;23240;43.210;27.910;2022-09-20T12:28:11;100862.56;;;19.49;36.67
37368;BME280;23240;43.210;27.910;2022-09-20T12:30:19;100870.97;;;19.62;36.09
37368;BME280;23240;43.210;27.910;2022-09-20T12:32:51;100866.06;;;19.58;36.11
37368;BME280;23240;43.210;27.910;2022-09-20T12:43:28;100864.41;;;19.80;35.55
37368;BME280;23240;43.210;27.910;2022-09-20T12:45:55;100857.13;;;19.95;35.30
37368;BME280;23240;43.210;27.910;2022-09-20T12:48:21;100856.69;;;20.06;35.00
37368;BME280;23240;43.210;27.910;2022-09-20T12:51:33;100856.69;;;20.06;34.96
37368;BME280;23240;43.210;27.910;2022-09-20T12:54:18;100851.72;;;20.10;34.64
37368;BME280;23240;43.210;27.910;2022-09-20T12:56:43;100857.47;;;20.15;34.86
37368;BME280;23240;43.210;27.910;2022-09-20T12:59:25;100850.22;;;19.92;34.74
37368;BME280;23240;43.210;27.910;2022-09-20T13:01:55;100855.16;;;19.89;34.69
37368;BME280;23240;43.210;27.910;2022-09-20T13:07:41;100860.09;;;19.39;34.99
37368;BME280;23240;43.210;27.910;2022-09-20T13:10:22;100861.16;;;19.30;35.51
37368;BME280;23240;43.210;27.910;2022-09-20T13:12:52;100862.84;;;19.31;35.98
37368;BME280;23240;43.210;27.910;2022-09-20T13:15:19;100871.66;;;19.33;35.32
37368;BME280;23240;43.210;27.910;2022-09-20T13:17:47;100868.16;;;19.24;35.53
37368;BME280;23240;43.210;27.910;2022-09-20T13:20:22;100859.84;;;19.26;35.66
37368;BME280;23240;43.210;27.910;2022-09-20T13:22:51;100864.53;;;19.32;35.38
37368;BME280;23240;43.210;27.910;2022-09-20T13:25:18;100857.91;;;19.35;35.02
37368;BME280;23240;43.210;27.910;2022-09-20T13:33:47;100867.59;;;19.29;35.39
37368;BME280;23240;43.210;27.910;2022-09-20T13:36:13;100864.53;;;19.32;35.07
37368;BME280;23240;43.210;27.910;2022-09-20T13:38:39;100870.81;;;19.33;35.18
37368;BME280;23240;43.210;27.910;2022-09-20T13:41:09;100864.19;;;19.35;35.42
37368;BME280;23240;43.210;27.910;2022-09-20T13:43:42;100859.38;;;19.45;35.50
37368;BME280;23240;43.210;27.910;2022-09-20T13:46:12;100866.19;;;19.41;34.69
37368;BME280;23240;43.210;27.910;2022-09-20T13:48:41;100868.16;;;19.24;35.02
37368;BME280;23240;43.210;27.910;2022-09-20T13:51:39;100871.13;;;19.07;35.31
37368;BME280;23240;43.210;27.910;2022-09-20T13:54:18;100866.44;;;19.00;35.64
37368;BME280;23240;43.210;27.910;2022-09-20T13:56:46;100865.56;;;19.00;35.72
37368;BME280;23240;43.210;27.910;2022-09-20T13:59:12;100878.34;;;18.91;35.93
37368;BME280;23240;43.210;27.910;2022-09-20T14:01:48;100875.47;;;18.85;35.58
37368;BME280;23240;43.210;27.910;2022-09-20T14:04:21;100879.22;;;18.75;36.23
37368;BME280;23240;43.210;27.910;2022-09-20T14:06:48;100882.63;;;18.78;36.61
37368;BME280;23240;43.210;27.910;2022-09-20T14:09:35;100876.03;;;18.72;36.56
37368;BME280;23240;43.210;27.910;2022-09-20T14:12:04;100880.78;;;18.70;36.39
37368;BME280;23240;43.210;27.910;2022-09-20T14:14:30;100883.50;;;18.70;36.51
37368;BME280;23240;43.210;27.910;2022-09-20T14:16:59;100882.13;;;18.74;36.69
37368;BME280;23240;43.210;27.910;2022-09-20T14:19:31;100881.41;;;18.80;36.74
37368;BME280;23240;43.210;27.910;2022-09-20T14:22:03;100881.75;;;18.85;36.87
37368;BME280;23240;43.210;27.910;2022-09-20T14:24:33;100880.03;;;18.92;36.65
37368;BME280;23240;43.210;27.910;2022-09-20T14:27:17;100885.59;;;18.99;36.73
37368;BME280;23240;43.210;27.910;2022-09-20T14:29:49;100881.91;;;19.23;36.23
37368;BME280;23240;43.210;27.910;2022-09-20T14:39:58;100879.13;;;19.39;35.93
37368;BME280;23240;43.210;27.910;2022-09-20T14:42:42;100884.69;;;19.38;35.83
37368;BME280;23240;43.210;27.910;2022-09-20T14:45:36;100882.28;;;19.43;35.43
37368;BME280;23240;43.210;27.910;2022-09-20T14:55:31;100897.47;;;19.29;34.94
37368;BME280;23240;43.210;27.910;2022-09-20T14:58:09;100888.19;;;19.23;35.07
37368;BME280;23240;43.210;27.910;2022-09-20T15:00:54;100895.34;;;19.16;34.65
37368;BME280;23240;43.210;27.910;2022-09-20T15:03:29;100901.00;;;19.07;34.81
37368;BME280;23240;43.210;27.910;2022-09-20T15:05:55;100905.28;;;19.01;34.93
37368;BME280;23240;43.210;27.910;2022-09-20T15:08:21;100902.41;;;18.94;35.39
37368;BME280;23240;43.210;27.910;2022-09-20T15:10:47;100910.72;;;18.93;35.34
37368;BME280;23240;43.210;27.910;2022-09-20T15:13:13;100904.97;;;18.88;35.57
37368;BME280;23240;43.210;27.910;2022-09-20T15:15:39;100897.50;;;18.90;35.87
37368;BME280;23240;43.210;27.910;2022-09-20T15:18:21;100912.94;;;18.89;35.35
37368;BME280;23240;43.210;27.910;2022-09-20T15:20:50;100901.94;;;18.83;35.22
37368;BME280;23240;43.210;27.910;2022-09-20T15:23:16;100910.94;;;18.83;35.46
37368;BME280;23240;43.210;27.910;2022-09-20T15:25:42;100913.84;;;18.82;35.47
37368;BME280;23240;43.210;27.910;2022-09-20T15:28:12;100911.97;;;18.82;35.44
37368;BME280;23240;43.210;27.910;2022-09-20T15:30:41;100915.66;;;18.89;35.96
37368;BME280;23240;43.210;27.910;2022-09-20T15:33:07;100913.66;;;18.83;35.59
37368;BME280;23240;43.210;27.910;2022-09-20T15:35:32;100918.22;;;18.83;36.21
37368;BME280;23240;43.210;27.910;2022-09-20T15:37:57;100916.53;;;18.82;36.37
37368;BME280;23240;43.210;27.910;2022-09-20T15:40:23;100920.94;;;18.83;36.52
37368;BME280;23240;43.210;27.910;2022-09-20T15:42:54;100921.59;;;18.85;36.61
37368;BME280;23240;43.210;27.910;2022-09-20T15:45:19;100919.78;;;18.77;36.73
37368;BME280;23240;43.210;27.910;2022-09-20T15:47:45;100923.84;;;18.81;36.81
37368;BME280;23240;43.210;27.910;2022-09-20T15:50:10;100921.97;;;18.82;37.00
37368;BME280;23240;43.210;27.910;2022-09-20T15:52:38;100923.66;;;18.83;36.54
37368;BME280;23240;43.210;27.910;2022-09-20T15:55:07;100923.84;;;18.73;36.93
37368;BME280;23240;43.210;27.910;2022-09-20T15:57:33;100924.50;;;18.75;36.54
37368;BME280;23240;43.210;27.910;2022-09-20T15:59:59;100924.19;;;18.70;36.56
37368;BME280;23240;43.210;27.910;2022-09-20T16:02:26;100920.28;;;18.64;36.85
37368;BME280;23240;43.210;27.910;2022-09-20T16:04:52;100925.91;;;18.55;36.87
37368;BME280;23240;43.210;27.910;2022-09-20T16:07:24;100929.63;;;18.45;37.08
37368;BME280;23240;43.210;27.910;2022-09-20T16:09:55;100930.84;;;18.35;37.54
37368;BME280;23240;43.210;27.910;2022-09-20T16:12:23;100926.44;;;18.26;37.97
37368;BME280;23240;43.210;27.910;2022-09-20T16:14:49;100931.72;;;18.19;37.96
37368;BME280;23240;43.210;27.910;2022-09-20T16:17:15;100937.28;;;18.17;38.02
37368;BME280;23240;43.210;27.910;2022-09-20T16:19:42;100940.50;;;18.13;37.95
37368;BME280;23240;43.210;27.910;2022-09-20T16:22:09;100938.84;;;18.04;38.01
37368;BME280;23240;43.210;27.910;2022-09-20T16:24:35;100940.84;;;18.02;38.26
37368;BME280;23240;43.210;27.910;2022-09-20T16:27:04;100945.28;;;17.94;38.44
37368;BME280;23240;43.210;27.910;2022-09-20T16:29:30;100946.44;;;18.00;38.38
37368;BME280;23240;43.210;27.910;2022-09-20T16:31:57;100950.34;;;17.89;38.44
37368;BME280;23240;43.210;27.910;2022-09-20T16:34:28;100959.13;;;17.83;39.06
37368;BME280;23240;43.210;27.910;2022-09-20T16:36:56;100956.59;;;17.82;38.96
37368;BME280;23240;43.210;27.910;2022-09-20T16:39:23;100963.53;;;17.76;39.31
37368;BME280;23240;43.210;27.910;2022-09-20T16:41:53;100954.19;;;17.70;39.56
37368;BME280;23240;43.210;27.910;2022-09-20T16:44:21;100961.78;;;17.67;39.85
37368;BME280;23240;43.210;27.910;2022-09-20T16:46:47;100963.13;;;17.63;39.77
37368;BME280;23240;43.210;27.910;2022-09-20T16:49:12;100964.31;;;17.60;39.86
37368;BME280;23240;43.210;27.910;2022-09-20T16:51:41;100966.84;;;17.62;40.09
37368;BME280;23240;43.210;27.910;2022-09-20T16:54:09;100966.28;;;17.50;40.08
37368;BME280;23240;43.210;27.910;2022-09-20T16:56:48;100969.53;;;17.54;40.19
37368;BME280;23240;43.210;27.910;2022-09-20T16:59:16;100969.34;;;17.47;40.35
37368;BME280;23240;43.210;27.910;2022-09-20T17:01:42;100969.53;;;17.45;41.10
37368;BME280;23240;43.210;27.910;2022-09-20T17:04:09;100971.19;;;17.38;41.24
37368;BME280;23240;43.210;27.910;2022-09-20T17:06:37;100977.06;;;17.34;41.76
37368;BME280;23240;43.210;27.910;2022-09-20T17:09:04;100978.41;;;17.30;41.51
37368;BME280;23240;43.210;27.910;2022-09-20T17:11:34;100977.69;;;17.19;42.01
37368;BME280;23240;43.210;27.910;2022-09-20T17:14:01;100981.41;;;17.18;41.96
37368;BME280;23240;43.210;27.910;2022-09-20T17:16:32;100992.38;;;17.09;41.81
37368;BME280;23240;43.210;27.910;2022-09-20T17:19:04;100990.69;;;17.08;42.27
37368;BME280;23240;43.210;27.910;2022-09-20T17:21:34;100990.81;;;17.06;42.21
37368;BME280;23240;43.210;27.910;2022-09-20T17:24:01;100989.13;;;17.05;42.17
37368;BME280;23240;43.210;27.910;2022-09-20T17:26:32;100989.31;;;17.04;42.59
37368;BME280;23240;43.210;27.910;2022-09-20T17:29:00;100990.16;;;17.04;42.63
37368;BME280;23240;43.210;27.910;2022-09-20T17:31:28;100993.34;;;17.00;42.40
37368;BME280;23240;43.210;27.910;2022-09-20T17:34:02;100989.97;;;16.98;42.11
37368;BME280;23240;43.210;27.910;2022-09-20T17:36:45;100997.38;;;16.95;42.56
37368;BME280;23240;43.210;27.910;2022-09-20T17:39:12;101004.63;;;16.95;42.57
37368;BME280;23240;43.210;27.910;2022-09-20T17:41:45;101010.22;;;16.93;43.08
37368;BME280;23240;43.210;27.910;2022-09-20T17:44:11;101011.53;;;16.89;43.48
37368;BME280;23240;43.210;27.910;2022-09-20T17:46:38;101015.41;;;16.87;44.37
37368;BME280;23240;43.210;27.910;2022-09-20T17:49:09;101015.75;;;16.84;44.34